Time;durP1;ratioP1;P1;durP2;ratioP2;P2;SDS_P1;SDS_P2;PMS_P1;PMS_P2;Temp;Humidity;BMP_temperature;BMP_pressure;BME280_temperature;BME280_humidity;BME280_pressure;Samples;Min_cycle;Max_cycle;Signal;HPM_P1;HPM_P2
2022/05/29 00:01:56;;;;;;;20.17;6.00;;;10.20;89.60;;;;;;5054683;28;20669;-84
2022/05/29 00:04:22;;;;;;;33.60;6.93;;;10.20;89.20;;;;;;5036756;28;20184;-84
2022/05/29 00:06:51;;;;;;;22.23;5.30;;;10.20;89.10;;;;;;5036329;28;20279;-83
2022/05/29 00:09:33;;;;;;;26.53;5.47;;;10.10;88.90;;;;;;5054425;28;20176;-83
2022/05/29 00:12:01;;;;;;;22.80;5.67;;;10.10;89.00;;;;;;5054283;28;20198;-84
2022/05/29 00:14:28;;;;;;;29.83;6.40;;;10.10;89.10;;;;;;5054365;28;20172;-84
2022/05/29 00:16:54;;;;;;;32.83;6.80;;;10.00;89.30;;;;;;5036238;28;20571;-84
2022/05/29 00:19:19;;;;;;;31.17;6.73;;;10.00;89.40;;;;;;5036535;28;20179;-84
2022/05/29 00:21:45;;;;;;;24.50;6.33;;;9.90;89.60;;;;;;5036736;28;20604;-83
2022/05/29 00:24:11;;;;;;;31.97;6.93;;;10.00;89.70;;;;;;5054197;28;20192;-84
2022/05/29 00:26:36;;;;;;;23.73;6.87;;;10.00;89.30;;;;;;5036130;28;20282;-84
2022/05/29 00:29:02;;;;;;;22.13;5.90;;;10.10;89.40;;;;;;5036259;28;20180;-84
2022/05/29 00:31:28;;;;;;;29.50;5.97;;;10.10;89.30;;;;;;5036053;28;20322;-84
2022/05/29 00:33:53;;;;;;;28.77;7.53;;;10.00;89.40;;;;;;5054224;28;20175;-84
2022/05/29 00:36:19;;;;;;;26.87;5.67;;;9.90;89.50;;;;;;5035888;28;20206;-84
2022/05/29 00:38:46;;;;;;;30.23;7.33;;;10.00;89.70;;;;;;5054015;28;20179;-84
2022/05/29 00:41:19;;;;;;;26.73;5.67;;;10.10;89.40;;;;;;5053788;28;20727;-83
2022/05/29 00:44:15;;;;;;;24.63;6.37;;;10.00;89.50;;;;;;5036014;28;20243;-86
2022/05/29 00:46:49;;;;;;;33.50;6.40;;;10.00;89.50;;;;;;5036820;28;20673;-84
2022/05/29 00:49:16;;;;;;;25.90;5.97;;;10.00;89.50;;;;;;5036123;28;20172;-84
2022/05/29 00:51:46;;;;;;;26.83;6.40;;;10.00;89.60;;;;;;5036684;28;20583;-84
2022/05/29 00:54:13;;;;;;;24.37;5.83;;;10.00;89.70;;;;;;5053874;28;20160;-84
2022/05/29 00:56:40;;;;;;;34.87;6.33;;;10.00;89.50;;;;;;5036175;28;20303;-84
2022/05/29 00:59:14;;;;;;;23.30;6.47;;;10.00;89.60;;;;;;5053814;28;20604;-84
2022/05/29 01:01:40;;;;;;;24.27;5.80;;;10.00;89.60;;;;;;5036460;28;20667;-85
2022/05/29 01:04:07;;;;;;;29.93;6.33;;;10.00;89.60;;;;;;5053874;28;20183;-84
2022/05/29 01:06:33;;;;;;;28.57;5.97;;;10.10;89.50;;;;;;5036160;28;20283;-84
2022/05/29 01:08:59;;;;;;;32.40;7.40;;;10.10;89.50;;;;;;5035877;28;20228;-84
2022/05/29 01:11:34;;;;;;;24.03;5.87;;;10.00;89.50;;;;;;5053770;28;20541;-82
2022/05/29 01:14:13;;;;;;;22.77;6.40;;;10.10;89.60;;;;;;5035824;28;20513;-84
2022/05/29 01:17:07;;;;;;;22.43;5.80;;;10.10;89.30;;;;;;5054024;28;20188;-84
2022/05/29 01:19:43;;;;;;;28.43;5.27;;;10.10;89.30;;;;;;5053963;28;20249;-84
2022/05/29 01:22:35;;;;;;;25.07;5.73;;;10.10;89.10;;;;;;5035912;28;20200;-85
2022/05/29 01:25:41;;;;;;;28.10;6.00;;;10.00;89.20;;;;;;5035714;28;20255;-84
2022/05/29 01:28:44;;;;;;;24.97;5.93;;;10.00;89.40;;;;;;5036093;28;20182;-85
2022/05/29 01:31:27;;;;;;;32.43;5.63;;;10.00;89.40;;;;;;5035756;28;20175;-84
2022/05/29 01:34:19;;;;;;;21.97;5.10;;;10.00;89.30;;;;;;5035786;28;20273;-84
2022/05/29 01:37:07;;;;;;;29.67;5.77;;;10.00;89.10;;;;;;5035523;28;20249;-84
2022/05/29 01:39:50;;;;;;;28.73;5.50;;;10.00;89.00;;;;;;5035741;28;20167;-85
2022/05/29 01:42:32;;;;;;;25.67;5.60;;;10.00;89.10;;;;;;5035676;28;20192;-84
2022/05/29 01:45:29;;;;;;;27.03;5.60;;;10.00;88.80;;;;;;5035958;28;20231;-85
2022/05/29 01:48:04;;;;;;;19.53;5.83;;;10.00;88.80;;;;;;5056691;28;20164;-84
2022/05/29 01:50:40;;;;;;;38.33;5.80;;;9.90;88.60;;;;;;5057223;28;20164;-84
2022/05/29 01:53:19;;;;;;;21.73;4.80;;;10.00;88.30;;;;;;5039251;28;20247;-84
2022/05/29 01:55:52;;;;;;;19.13;4.80;;;9.90;88.50;;;;;;5057547;28;20645;-84
2022/05/29 01:58:24;;;;;;;19.73;4.30;;;10.00;88.60;;;;;;5038739;28;20160;-83
2022/05/29 02:00:53;;;;;;;24.93;5.40;;;10.00;88.50;;;;;;5056851;28;20159;-84
2022/05/29 02:03:27;;;;;;;20.87;5.17;;;10.00;88.60;;;;;;5038476;28;20313;-84
2022/05/29 02:06:00;;;;;;;28.80;5.80;;;10.00;88.60;;;;;;5038136;28;20272;-83
2022/05/29 02:08:36;;;;;;;24.13;5.27;;;10.00;88.70;;;;;;5057168;28;20209;-83
2022/05/29 02:11:09;;;;;;;25.23;5.60;;;10.00;88.80;;;;;;5038281;28;20228;-83
2022/05/29 02:14:02;;;;;;;24.17;5.93;;;10.00;88.90;;;;;;5056327;28;20589;-84
2022/05/29 02:16:38;;;;;;;29.50;5.60;;;10.10;88.90;;;;;;5038175;28;20200;-84
2022/05/29 02:19:13;;;;;;;28.50;5.17;;;10.10;89.00;;;;;;5056466;28;20163;-84
2022/05/29 02:21:45;;;;;;;32.10;5.67;;;10.00;89.10;;;;;;5037978;28;20180;-84
2022/05/29 02:24:15;;;;;;;25.63;5.10;;;10.10;89.40;;;;;;5037940;28;20164;-84
2022/05/29 02:26:56;;;;;;;25.10;5.07;;;10.10;89.40;;;;;;5055485;28;20188;-83
2022/05/29 02:29:21;;;;;;;28.73;5.43;;;10.10;89.40;;;;;;5037666;28;20257;-84
2022/05/29 02:32:28;;;;;;;27.83;6.33;;;10.10;89.50;;;;;;5055766;28;20180;-84
2022/05/29 02:35:10;;;;;;;21.13;5.90;;;10.10;89.40;;;;;;4999490;28;20203;-83
2022/05/29 02:37:40;;;;;;;27.23;5.83;;;10.10;89.50;;;;;;5055529;28;20341;-84
2022/05/29 02:40:08;;;;;;;24.67;5.50;;;10.00;89.50;;;;;;5055664;28;20562;-84
2022/05/29 02:42:46;;;;;;;29.77;6.03;;;10.10;89.50;;;;;;5055360;28;20226;-84
2022/05/29 02:45:44;;;;;;;27.60;7.00;;;10.10;89.60;;;;;;5055562;28;20192;-83
2022/05/29 02:48:19;;;;;;;24.70;5.67;;;10.10;89.60;;;;;;5037587;28;20169;-84
2022/05/29 02:51:17;;;;;;;26.67;5.30;;;10.10;89.60;;;;;;5037589;28;20217;-83
2022/05/29 02:53:44;;;;;;;27.47;6.20;;;10.20;89.50;;;;;;5055141;28;20622;-83
2022/05/29 02:56:11;;;;;;;32.43;5.73;;;10.10;89.40;;;;;;5037612;28;20607;-84
2022/05/29 02:58:40;;;;;;;26.70;5.93;;;10.10;89.60;;;;;;5054010;28;20187;-84
2022/05/29 03:01:25;;;;;;;24.73;6.73;;;10.10;89.70;;;;;;5037337;28;20260;-83
2022/05/29 03:04:10;;;;;;;30.87;5.83;;;10.20;89.50;;;;;;5055378;28;20187;-84
2022/05/29 03:07:19;;;;;;;31.33;6.53;;;10.20;89.60;;;;;;5037317;28;20226;-84
2022/05/29 03:09:58;;;;;;;24.67;5.87;;;10.10;89.50;;;;;;5055408;28;20610;-84
2022/05/29 03:12:47;;;;;;;35.80;6.90;;;10.10;89.60;;;;;;5055045;28;20187;-84
2022/05/29 03:15:34;;;;;;;47.37;9.20;;;10.10;89.60;;;;;;5055058;28;20572;-84
2022/05/29 03:18:12;;;;;;;35.77;8.23;;;10.10;89.90;;;;;;5054892;28;20179;-84
2022/05/29 03:20:44;;;;;;;30.60;6.23;;;10.20;89.90;;;;;;5036874;28;20175;-84
2022/05/29 03:23:21;;;;;;;25.03;6.33;;;10.10;89.90;;;;;;5054718;28;20199;-84
2022/05/29 03:25:52;;;;;;;28.47;6.17;;;10.20;90.00;;;;;;5054811;28;20184;-84
2022/05/29 03:28:35;;;;;;;34.67;6.87;;;10.20;90.10;;;;;;5036935;28;20517;-84
2022/05/29 03:31:06;;;;;;;34.33;6.03;;;10.20;90.00;;;;;;5054858;28;20214;-84
2022/05/29 03:33:32;;;;;;;42.87;6.60;;;10.20;90.00;;;;;;5054661;28;20192;-84
2022/05/29 03:35:57;;;;;;;30.17;5.87;;;10.20;90.10;;;;;;5036654;28;20601;-83
2022/05/29 03:38:22;;;;;;;28.77;6.47;;;10.20;90.30;;;;;;5054901;28;20225;-84
2022/05/29 03:40:50;;;;;;;30.47;6.23;;;10.20;90.30;;;;;;5036553;28;20172;-83
2022/05/29 03:43:15;;;;;;;24.60;7.03;;;10.30;90.20;;;;;;5036612;28;20212;-83
2022/05/29 03:45:41;;;;;;;31.83;6.87;;;10.30;90.30;;;;;;5036436;28;20218;-83
2022/05/29 03:48:07;;;;;;;27.90;6.57;;;10.20;90.30;;;;;;5036266;28;20179;-83
2022/05/29 03:50:34;;;;;;;36.10;6.17;;;10.30;90.40;;;;;;5036357;28;20180;-84
2022/05/29 03:53:01;;;;;;;28.23;5.20;;;10.30;90.30;;;;;;5036234;28;20196;-84
2022/05/29 03:55:27;;;;;;;25.33;6.53;;;10.20;90.50;;;;;;5054238;28;20549;-84
2022/05/29 03:57:53;;;;;;;29.83;5.97;;;10.30;90.40;;;;;;5054249;28;20168;-83
2022/05/29 04:00:20;;;;;;;28.40;5.83;;;10.30;90.50;;;;;;5054117;28;20644;-84
2022/05/29 04:02:47;;;;;;;25.33;5.90;;;10.30;90.70;;;;;;5053951;28;20188;-83
2022/05/29 04:05:19;;;;;;;30.53;7.30;;;10.30;90.70;;;;;;5054059;28;20168;-83
2022/05/29 04:13:15;;;;;;;23.40;5.23;;;10.30;90.70;;;;;;5054412;28;20203;-84
2022/05/29 04:15:45;;;;;;;36.93;6.93;;;10.30;90.80;;;;;;5036202;28;20204;-84
2022/05/29 04:18:15;;;;;;;21.00;5.57;;;10.30;90.60;;;;;;5053769;28;20148;-84
2022/05/29 04:20:41;;;;;;;28.10;5.53;;;10.30;90.80;;;;;;5053853;28;20219;-84
2022/05/29 04:23:07;;;;;;;27.10;6.43;;;10.30;90.70;;;;;;5035931;28;20313;-83
2022/05/29 04:25:32;;;;;;;30.37;5.80;;;10.30;90.80;;;;;;5053625;28;20172;-84
2022/05/29 04:27:58;;;;;;;23.10;6.33;;;10.40;90.80;;;;;;5035880;28;20696;-84
2022/05/29 04:30:23;;;;;;;26.97;5.53;;;10.40;90.80;;;;;;5053655;28;20168;-83
2022/05/29 04:33:01;;;;;;;29.40;6.47;;;10.30;90.70;;;;;;5053611;28;20692;-84
2022/05/29 04:35:29;;;;;;;33.43;6.30;;;10.30;90.80;;;;;;5035680;28;20228;-84
2022/05/29 04:37:54;;;;;;;27.80;5.57;;;10.30;90.90;;;;;;5035578;28;20172;-84
2022/05/29 04:40:20;;;;;;;25.43;5.63;;;10.40;90.90;;;;;;5035431;28;20605;-83
2022/05/29 04:42:46;;;;;;;25.63;6.17;;;10.40;90.80;;;;;;5035573;28;20192;-84
2022/05/29 04:45:11;;;;;;;29.63;5.67;;;10.40;90.90;;;;;;5035733;28;20569;-84
2022/05/29 04:47:37;;;;;;;26.40;6.13;;;10.30;90.80;;;;;;5053888;28;20250;-83
2022/05/29 04:50:04;;;;;;;27.67;5.37;;;10.40;90.90;;;;;;5053499;28;20263;-84
2022/05/29 04:52:29;;;;;;;23.70;5.43;;;10.40;90.80;;;;;;5053472;28;20188;-84
2022/05/29 04:54:56;;;;;;;25.73;5.40;;;10.40;90.90;;;;;;5035507;28;20183;-84
2022/05/29 04:57:22;;;;;;;28.63;5.90;;;10.40;90.90;;;;;;5053258;28;20241;-84
2022/05/29 04:59:47;;;;;;;25.67;5.63;;;10.40;90.90;;;;;;5053486;28;20176;-84
2022/05/29 05:02:13;;;;;;;25.90;5.77;;;10.40;90.90;;;;;;5053430;28;20192;-84
2022/05/29 05:04:38;;;;;;;30.20;6.10;;;10.40;91.00;;;;;;5035511;28;20553;-83
2022/05/29 05:07:04;;;;;;;29.50;6.00;;;10.50;90.80;;;;;;5053385;28;20594;-84
2022/05/29 05:09:30;;;;;;;18.63;5.13;;;10.50;90.80;;;;;;5053540;28;20173;-83
2022/05/29 05:11:56;;;;;;;23.07;5.57;;;10.50;90.80;;;;;;5053471;28;20192;-84
2022/05/29 05:14:24;;;;;;;24.30;5.23;;;10.50;90.70;;;;;;5053435;28;20203;-84
2022/05/29 05:16:52;;;;;;;23.80;5.23;;;10.50;90.80;;;;;;5034996;28;20200;-84
2022/05/29 05:19:19;;;;;;;23.37;5.20;;;10.50;90.80;;;;;;5053537;28;20310;-84
2022/05/29 05:21:45;;;;;;;22.77;5.50;;;10.50;90.80;;;;;;5054394;28;20176;-84
2022/05/29 05:24:11;;;;;;;21.67;4.80;;;10.50;90.90;;;;;;5056959;28;20534;-83
2022/05/29 05:26:36;;;;;;;19.77;5.03;;;10.50;90.90;;;;;;5038925;28;20257;-84
2022/05/29 05:29:02;;;;;;;35.77;5.77;;;10.60;90.80;;;;;;5056892;28;20177;-84
2022/05/29 05:31:27;;;;;;;20.73;4.90;;;10.60;90.70;;;;;;5039093;28;20657;-83
2022/05/29 05:33:53;;;;;;;25.17;4.77;;;10.60;90.70;;;;;;5056873;28;20666;-84
2022/05/29 05:36:19;;;;;;;17.17;5.03;;;10.60;90.70;;;;;;5056613;28;20565;-83
2022/05/29 05:38:45;;;;;;;27.97;5.07;;;10.70;90.70;;;;;;5039209;28;20172;-83
2022/05/29 05:41:12;;;;;;;26.83;6.93;;;10.60;90.70;;;;;;5038959;28;20172;-84
2022/05/29 05:43:39;;;;;;;27.90;5.57;;;10.50;90.50;;;;;;5056621;28;20184;-83
2022/05/29 05:46:09;;;;;;;19.67;5.47;;;10.60;90.60;;;;;;5057147;28;20172;-84
2022/05/29 05:48:36;;;;;;;21.60;4.97;;;10.60;90.80;;;;;;5038573;28;20270;-84
2022/05/29 05:51:02;;;;;;;23.70;5.33;;;10.60;90.80;;;;;;5038695;28;20668;-84
2022/05/29 05:53:28;;;;;;;20.33;5.50;;;10.60;90.90;;;;;;5038771;28;20200;-83
2022/05/29 05:55:53;;;;;;;20.57;5.20;;;10.60;90.90;;;;;;5056212;28;20192;-84
2022/05/29 05:58:19;;;;;;;26.23;5.00;;;10.60;91.00;;;;;;5038411;28;20217;-84
2022/05/29 06:00:47;;;;;;;25.77;5.60;;;10.60;91.10;;;;;;5056348;28;20171;-85
2022/05/29 06:03:12;;;;;;;22.37;5.43;;;10.60;91.20;;;;;;5056052;28;20188;-84
2022/05/29 06:05:38;;;;;;;20.27;4.83;;;10.60;91.30;;;;;;5038348;28;20176;-84
2022/05/29 06:08:04;;;;;;;21.63;6.07;;;10.70;91.40;;;;;;5056181;28;20168;-83
2022/05/29 06:10:29;;;;;;;25.73;6.17;;;10.70;91.40;;;;;;5056036;28;20273;-84
2022/05/29 06:12:56;;;;;;;28.00;5.47;;;10.70;91.30;;;;;;5056165;28;20690;-84
2022/05/29 06:15:22;;;;;;;27.90;6.10;;;10.70;91.40;;;;;;5056021;28;20251;-84
2022/05/29 06:17:47;;;;;;;27.87;5.57;;;10.70;91.40;;;;;;5038391;28;20267;-84
2022/05/29 06:20:13;;;;;;;27.30;5.73;;;10.70;91.30;;;;;;5037906;28;20172;-84
2022/05/29 06:22:41;;;;;;;27.83;5.83;;;10.70;91.40;;;;;;5055829;28;20192;-83
2022/05/29 06:25:07;;;;;;;27.60;5.67;;;10.80;91.40;;;;;;5056199;28;20203;-83
2022/05/29 06:27:41;;;;;;;19.27;4.50;;;10.80;91.40;;;;;;5055659;28;20585;-84
2022/05/29 06:30:09;;;;;;;28.63;6.07;;;10.90;91.10;;;;;;5055739;28;20157;-83
2022/05/29 06:32:36;;;;;;;19.27;4.70;;;10.90;91.10;;;;;;5037466;28;20223;-83
2022/05/29 06:35:02;;;;;;;19.37;4.50;;;10.90;90.90;;;;;;5055480;28;20187;-84
2022/05/29 06:37:29;;;;;;;24.03;6.67;;;10.90;90.90;;;;;;5055953;28;20214;-84
2022/05/29 06:39:55;;;;;;;23.57;5.90;;;10.90;90.90;;;;;;5037531;28;20230;-84
2022/05/29 06:42:21;;;;;;;31.57;6.40;;;10.90;90.90;;;;;;5037876;28;20208;-83
2022/05/29 06:44:46;;;;;;;28.53;6.13;;;11.00;91.10;;;;;;5037771;28;20176;-84
2022/05/29 06:47:14;;;;;;;28.33;6.20;;;11.00;90.90;;;;;;5055453;28;20184;-83
2022/05/29 06:49:40;;;;;;;23.57;5.87;;;11.10;91.10;;;;;;5055380;28;20176;-83
2022/05/29 06:52:10;;;;;;;22.93;5.63;;;11.10;91.20;;;;;;5037357;28;20670;-84
2022/05/29 06:54:37;;;;;;;26.63;5.50;;;11.20;91.30;;;;;;5055202;28;20512;-84
2022/05/29 06:57:06;;;;;;;23.40;6.47;;;11.20;91.20;;;;;;5055298;28;20226;-85
2022/05/29 07:06:58;;;;;;;27.13;6.47;;;11.20;91.20;;;;;;5036961;28;20180;-86
2022/05/29 07:07:50;;;;;;;24.20;5.43;;;11.20;91.00;;;;;;5056685;28;20238;-84
2022/05/29 07:10:16;;;;;;;29.87;6.60;;;11.30;91.00;;;;;;5055109;28;20646;-84
2022/05/29 07:12:41;;;;;;;26.40;7.03;;;11.30;91.00;;;;;;5054976;28;20211;-83
2022/05/29 07:15:07;;;;;;;20.40;5.17;;;11.30;90.70;;;;;;5037193;28;20177;-83
2022/05/29 07:17:34;;;;;;;28.83;6.17;;;11.30;90.70;;;;;;5055203;28;20269;-84
2022/05/29 07:19:59;;;;;;;23.40;5.60;;;11.30;90.80;;;;;;5054926;28;20188;-84
2022/05/29 07:22:26;;;;;;;26.93;5.73;;;11.40;90.90;;;;;;5055074;28;20698;-83
2022/05/29 07:24:53;;;;;;;24.00;6.20;;;11.30;90.70;;;;;;5055025;28;20168;-83
2022/05/29 07:27:18;;;;;;;28.03;5.80;;;11.40;90.90;;;;;;5055043;28;20191;-83
2022/05/29 07:29:44;;;;;;;26.13;5.70;;;11.40;91.00;;;;;;5037303;28;20563;-84
2022/05/29 07:32:11;;;;;;;19.80;6.00;;;11.50;91.10;;;;;;5036981;28;20207;-83
2022/05/29 07:34:36;;;;;;;22.80;5.47;;;11.50;90.60;;;;;;5055310;28;20255;-83
2022/05/29 07:37:08;;;;;;;22.20;5.73;;;11.50;90.70;;;;;;5054900;28;20287;-83
2022/05/29 07:39:37;;;;;;;21.80;5.33;;;11.50;90.60;;;;;;5036922;28;20255;-83
2022/05/29 07:44:48;;;;;;;24.57;6.07;;;11.50;90.40;;;;;;5054447;28;20195;-84
2022/05/29 07:47:14;;;;;;;25.93;5.70;;;11.50;90.30;;;;;;5054663;28;20576;-83
2022/05/29 07:49:39;;;;;;;26.23;5.00;;;11.50;90.00;;;;;;5054703;28;20180;-84
2022/05/29 07:52:05;;;;;;;25.43;6.37;;;11.50;89.90;;;;;;5054772;28;20203;-84
2022/05/29 07:54:30;;;;;;;21.00;5.30;;;11.50;90.20;;;;;;5054989;28;20176;-83
2022/05/29 07:56:56;;;;;;;26.87;6.23;;;11.60;90.30;;;;;;5055039;28;20286;-84
2022/05/29 07:59:22;;;;;;;29.67;6.57;;;11.60;90.40;;;;;;5037183;28;20230;-83
2022/05/29 08:01:48;;;;;;;20.60;5.30;;;11.60;90.30;;;;;;5054561;28;20168;-84
2022/05/29 08:04:15;;;;;;;21.07;5.20;;;11.70;90.30;;;;;;5036748;28;20176;-84
2022/05/29 08:06:40;;;;;;;22.73;5.20;;;11.80;90.20;;;;;;5036873;28;20183;-83
2022/05/29 08:09:06;;;;;;;29.63;6.23;;;11.80;90.10;;;;;;5053648;28;20176;-84
2022/05/29 08:11:33;;;;;;;18.93;4.63;;;11.80;89.60;;;;;;5054116;28;20182;-83
2022/05/29 08:14:00;;;;;;;22.90;5.20;;;11.80;89.50;;;;;;5035893;28;20180;-84
2022/05/29 08:16:25;;;;;;;20.97;4.77;;;11.80;89.50;;;;;;5053832;28;20198;-83
2022/05/29 08:18:53;;;;;;;22.43;4.93;;;11.90;89.60;;;;;;5035840;28;20172;-83
2022/05/29 08:21:19;;;;;;;18.83;5.17;;;11.90;89.20;;;;;;5035535;28;20662;-84
2022/05/29 08:30:37;;;;;;;17.30;3.87;;;11.90;89.00;;;;;;5035757;28;20201;-84
2022/05/29 08:31:58;;;;;;;15.07;4.20;;;11.90;89.50;;;;;;5054412;28;20258;-84
2022/05/29 08:34:24;;;;;;;23.17;5.40;;;11.80;89.60;;;;;;5053762;28;20176;-83
2022/05/29 08:36:50;;;;;;;18.33;4.67;;;11.80;89.40;;;;;;5035583;28;20637;-83
2022/05/29 08:39:15;;;;;;;24.43;5.13;;;11.80;89.40;;;;;;5035824;28;20172;-83
2022/05/29 08:41:48;;;;;;;23.47;4.57;;;11.80;89.50;;;;;;5035686;28;20175;-84
2022/05/29 08:44:17;;;;;;;22.27;4.30;;;11.80;89.70;;;;;;5053587;28;20650;-84
2022/05/29 08:46:47;;;;;;;21.10;4.47;;;11.80;89.70;;;;;;5035628;28;20592;-83
2022/05/29 08:49:21;;;;;;;21.07;4.77;;;11.80;89.60;;;;;;5035662;28;20192;-83
2022/05/29 08:52:05;;;;;;;18.40;4.27;;;11.80;89.50;;;;;;5053477;28;20165;-84
2022/05/29 08:54:57;;;;;;;16.77;4.30;;;11.80;89.30;;;;;;5035375;28;20530;-84
2022/05/29 08:57:59;;;;;;;14.93;4.33;;;11.70;89.10;;;;;;5057708;28;20699;-83
2022/05/29 09:00:43;;;;;;;19.57;4.73;;;11.70;88.80;;;;;;5040328;28;20508;-83
2022/05/29 09:03:21;;;;;;;16.23;5.20;;;11.70;89.00;;;;;;5058802;28;20190;-84
2022/05/29 09:05:52;;;;;;;20.70;4.73;;;11.70;89.10;;;;;;5057758;28;20511;-85
2022/05/29 09:08:19;;;;;;;16.80;4.50;;;11.70;89.20;;;;;;5039943;28;20168;-85
2022/05/29 09:10:47;;;;;;;24.63;4.47;;;11.80;89.00;;;;;;5057905;28;20176;-84
2022/05/29 09:13:25;;;;;;;16.40;4.33;;;11.70;89.10;;;;;;5039858;28;20279;-84
2022/05/29 09:15:56;;;;;;;10.43;4.33;;;11.70;89.10;;;;;;5039807;28;20597;-84
2022/05/29 09:18:28;;;;;;;21.00;6.17;;;11.70;89.20;;;;;;5058185;28;20163;-85
2022/05/29 09:21:02;;;;;;;18.27;5.13;;;11.70;89.30;;;;;;5057811;28;20184;-84
2022/05/29 09:23:34;;;;;;;25.77;5.80;;;11.70;89.30;;;;;;5057519;28;20273;-84
2022/05/29 09:26:04;;;;;;;22.30;5.07;;;11.80;89.40;;;;;;5040122;28;20202;-85
2022/05/29 09:28:35;;;;;;;20.90;5.73;;;11.80;89.40;;;;;;5040011;28;20195;-84
2022/05/29 09:31:16;;;;;;;28.43;5.43;;;11.80;89.20;;;;;;5040089;28;20168;-84
2022/05/29 09:33:41;;;;;;;15.97;4.17;;;11.90;89.10;;;;;;5057213;28;20681;-84
2022/05/29 09:36:35;;;;;;;20.57;4.07;;;11.90;88.90;;;;;;5039360;28;20210;-84
2022/05/29 09:39:22;;;;;;;18.53;4.53;;;12.00;88.60;;;;;;5057418;28;20156;-83
2022/05/29 09:41:55;;;;;;;16.20;4.70;;;12.00;88.10;;;;;;5057069;28;20152;-83
2022/05/29 09:44:22;;;;;;;21.17;4.53;;;12.00;87.80;;;;;;5039763;28;20168;-83
2022/05/29 09:46:51;;;;;;;16.57;3.80;;;12.00;87.90;;;;;;5056843;28;20242;-83
2022/05/29 09:49:40;;;;;;;16.97;4.23;;;12.00;87.70;;;;;;5056892;28;20222;-84
2022/05/29 09:52:12;;;;;;;13.87;3.90;;;12.00;87.60;;;;;;5057255;28;20192;-83
2022/05/29 09:55:02;;;;;;;19.10;5.13;;;12.00;87.80;;;;;;5057590;28;20171;-83
2022/05/29 09:57:31;;;;;;;14.50;3.87;;;12.00;88.00;;;;;;5039795;28;20195;-83
2022/05/29 10:00:06;;;;;;;16.70;3.87;;;12.00;88.20;;;;;;5057131;28;20168;-84
2022/05/29 10:02:40;;;;;;;14.10;4.17;;;12.00;87.90;;;;;;5039449;28;20187;-84
2022/05/29 10:05:19;;;;;;;12.63;3.23;;;12.00;87.90;;;;;;5057544;28;20293;-84
2022/05/29 10:07:47;;;;;;;16.90;4.57;;;12.10;88.20;;;;;;5039341;28;20250;-84
2022/05/29 10:10:35;;;;;;;19.17;4.37;;;12.10;88.30;;;;;;5039443;28;20547;-84
2022/05/29 10:13:02;;;;;;;13.73;4.10;;;12.10;88.40;;;;;;5056458;28;20236;-83
2022/05/29 10:15:27;;;;;;;10.73;3.10;;;12.20;88.80;;;;;;5056721;28;20263;-84
2022/05/29 10:18:00;;;;;;;17.57;4.03;;;12.20;88.90;;;;;;5038583;28;20294;-85
2022/05/29 10:20:32;;;;;;;15.73;4.23;;;12.20;89.00;;;;;;5038707;28;20524;-84
2022/05/29 10:23:10;;;;;;;17.27;4.77;;;12.10;88.90;;;;;;5056802;28;20227;-84
2022/05/29 10:25:59;;;;;;;24.17;4.10;;;12.00;88.60;;;;;;5056886;28;20164;-85
2022/05/29 10:28:30;;;;;;;13.37;3.60;;;12.00;88.60;;;;;;5039211;28;20255;-84
2022/05/29 10:31:01;;;;;;;19.57;4.90;;;11.90;88.60;;;;;;5057604;28;20179;-83
2022/05/29 10:33:31;;;;;;;12.10;4.30;;;11.90;88.70;;;;;;5056871;28;20196;-84
2022/05/29 10:36:08;;;;;;;16.83;5.17;;;11.90;89.00;;;;;;5057154;28;20681;-86
2022/05/29 10:38:34;;;;;;;15.97;3.77;;;11.90;89.20;;;;;;5057237;28;20168;-84
2022/05/29 10:41:03;;;;;;;16.07;3.87;;;11.90;89.40;;;;;;5056929;28;20172;-84
2022/05/29 10:43:46;;;;;;;17.10;4.23;;;11.90;89.40;;;;;;5056627;28;20194;-83
2022/05/29 10:46:16;;;;;;;16.27;4.03;;;12.00;89.40;;;;;;5057179;28;20164;-83
2022/05/29 10:48:55;;;;;;;14.00;3.87;;;12.00;89.60;;;;;;5056566;28;20233;-86
2022/05/29 10:52:01;;;;;;;9.27;3.03;;;12.10;89.50;;;;;;5038506;28;20182;-84
2022/05/29 10:54:53;;;;;;;14.83;4.27;;;12.10;89.30;;;;;;5056360;28;20156;-84
2022/05/29 10:57:18;;;;;;;16.87;4.00;;;12.10;89.20;;;;;;5042385;28;20292;-86
2022/05/29 11:00:22;;;;;;;11.47;3.63;;;12.10;89.00;;;;;;5037882;28;20172;-84
2022/05/29 11:03:29;;;;;;;11.53;3.50;;;12.20;89.00;;;;;;4974063;28;20206;-86
2022/05/29 11:06:20;;;;;;;15.57;3.77;;;12.20;88.60;;;;;;5050749;28;20314;-85
2022/05/29 11:09:39;;;;;;;11.60;3.30;;;12.10;88.40;;;;;;5055296;28;20157;-84
2022/05/29 11:12:37;;;;;;;15.83;3.70;;;12.20;88.70;;;;;;4958061;28;20208;-85
2022/05/29 11:15:30;;;;;;;14.00;3.33;;;12.20;88.80;;;;;;5037111;28;20579;-85
2022/05/29 11:18:15;;;;;;;15.23;3.40;;;12.20;88.50;;;;;;5036972;28;20179;-85
2022/05/29 11:20:55;;;;;;;13.90;3.27;;;12.20;88.60;;;;;;5036062;28;20537;-84
2022/05/29 11:23:30;;;;;;;10.87;3.07;;;12.20;88.60;;;;;;5036834;28;20200;-85
2022/05/29 11:26:19;;;;;;;9.20;2.80;;;12.20;88.70;;;;;;5054964;28;20183;-85
2022/05/29 11:28:48;;;;;;;15.20;3.27;;;12.10;88.70;;;;;;5054876;28;20239;-86
2022/05/29 11:31:31;;;;;;;14.70;3.60;;;12.10;88.40;;;;;;5054633;28;20172;-87
2022/05/29 11:34:25;;;;;;;12.50;3.77;;;12.10;88.50;;;;;;5054630;28;20653;-86
2022/05/29 11:37:20;;;;;;;15.60;4.40;;;12.20;88.60;;;;;;5036703;28;20701;-86
2022/05/29 11:39:52;;;;;;;16.43;3.90;;;12.30;88.70;;;;;;5054716;28;20153;-85
2022/05/29 11:42:35;;;;;;;16.73;4.80;;;12.30;88.70;;;;;;5036592;28;20192;-85
2022/05/29 11:45:09;;;;;;;14.33;3.20;;;12.30;88.50;;;;;;5054342;28;20710;-85
2022/05/29 11:51:10;;;;;;;21.03;4.57;;;12.30;87.80;;;;;;5054869;28;20183;-85
2022/05/29 11:53:47;;;;;;;19.57;3.97;;;12.50;87.90;;;;;;5035980;28;20215;-85
2022/05/29 11:56:25;;;;;;;11.37;3.87;;;12.70;88.00;;;;;;5053967;28;20184;-86
2022/05/29 11:59:19;;;;;;;12.87;3.43;;;12.80;87.80;;;;;;5053956;28;20152;-85
2022/05/29 12:02:19;;;;;;;14.37;3.60;;;12.80;87.50;;;;;;5046244;28;20255;-85
2022/05/29 12:04:59;;;;;;;14.13;3.73;;;12.90;87.20;;;;;;5035888;28;20160;-85
2022/05/29 12:07:39;;;;;;;13.90;3.30;;;13.00;87.20;;;;;;5035971;28;20250;-85
2022/05/29 12:10:13;;;;;;;10.40;3.43;;;13.10;86.40;;;;;;5036033;28;20176;-85
2022/05/29 12:12:43;;;;;;;15.33;3.47;;;13.10;85.80;;;;;;5054013;28;20223;-85
2022/05/29 12:15:20;;;;;;;16.97;4.17;;;13.30;86.20;;;;;;5036036;28;20746;-85
2022/05/29 12:17:59;;;;;;;13.00;3.53;;;13.30;86.30;;;;;;5035822;28;20303;-86
2022/05/29 12:20:43;;;;;;;12.90;3.53;;;13.50;85.50;;;;;;5036284;28;20159;-87
2022/05/29 12:23:33;;;;;;;13.50;3.50;;;13.60;85.50;;;;;;5036019;28;20196;-87
2022/05/29 12:26:08;;;;;;;17.27;3.90;;;13.50;84.30;;;;;;5035752;28;20202;-86
2022/05/29 12:28:41;;;;;;;12.87;3.80;;;13.60;84.20;;;;;;5054126;28;20155;-86
2022/05/29 12:31:14;;;;;;;13.23;4.27;;;13.50;83.50;;;;;;5035546;28;20536;-85
2022/05/29 12:33:43;;;;;;;12.70;3.47;;;13.50;83.80;;;;;;5053343;28;20210;-85
2022/05/29 12:36:27;;;;;;;15.23;3.53;;;13.60;84.00;;;;;;5035291;28;20207;-84
2022/05/29 12:38:57;;;;;;;16.97;3.53;;;13.70;83.80;;;;;;5053181;28;20188;-84
2022/05/29 12:41:45;;;;;;;18.70;3.37;;;13.70;83.60;;;;;;5053231;28;20717;-84
2022/05/29 12:44:23;;;;;;;15.87;3.30;;;13.80;83.30;;;;;;5053716;28;20512;-85
2022/05/29 12:47:12;;;;;;;12.93;3.77;;;13.70;83.30;;;;;;5035633;28;20218;-85
2022/05/29 12:49:52;;;;;;;16.83;3.90;;;13.60;83.00;;;;;;5036211;28;20222;-85
2022/05/29 12:52:22;;;;;;;18.23;3.63;;;13.50;83.00;;;;;;5036330;28;20265;-85
2022/05/29 12:55:05;;;;;;;13.77;3.17;;;13.40;83.30;;;;;;5035622;28;20665;-85
2022/05/29 12:58:01;;;;;;;16.77;4.03;;;13.40;83.50;;;;;;5053347;28;20657;-85
2022/05/29 13:00:46;;;;;;;13.83;4.43;;;13.40;83.70;;;;;;5036082;28;20566;-86
2022/05/29 13:03:23;;;;;;;17.13;3.70;;;13.50;84.00;;;;;;5035542;28;20187;-85
2022/05/29 13:06:26;;;;;;;15.27;3.07;;;13.50;83.90;;;;;;5053636;28;20172;-85
2022/05/29 13:09:14;;;;;;;13.60;3.70;;;13.50;83.20;;;;;;5053369;28;20270;-86
2022/05/29 13:11:50;;;;;;;11.53;3.63;;;13.50;83.10;;;;;;5035125;28;20172;-85
2022/05/29 13:14:17;;;;;;;16.30;4.33;;;13.50;82.50;;;;;;5035879;28;20549;-85
2022/05/29 13:16:44;;;;;;;10.33;2.83;;;13.50;82.00;;;;;;5035464;28;20771;-85
2022/05/29 13:19:21;;;;;;;15.70;3.67;;;13.50;82.30;;;;;;5035275;28;20204;-86
2022/05/29 13:22:06;;;;;;;19.37;4.77;;;13.50;82.30;;;;;;5053359;28;20201;-85
2022/05/29 13:24:38;;;;;;;16.90;3.77;;;13.60;82.50;;;;;;5053438;28;20149;-85
2022/05/29 13:27:13;;;;;;;15.40;3.80;;;13.70;82.30;;;;;;5052947;28;20187;-86
2022/05/29 13:29:51;;;;;;;20.33;3.67;;;13.70;82.90;;;;;;5053208;28;20528;-85
2022/05/29 13:32:20;;;;;;;15.53;3.30;;;13.70;82.10;;;;;;5035446;28;20200;-85
2022/05/29 13:34:48;;;;;;;15.30;3.30;;;13.50;81.50;;;;;;5035896;28;20176;-85